sensor_id;sensor_type;location;lat;lon;timestamp;pressure;altitude;pressure_sealevel;temperature;humidity
70571;BME280;58135;50.948;-1.458;2022-12-07T00:02:11;102049.08;;;5.25;16.03
70571;BME280;58135;50.948;-1.458;2022-12-07T00:04:36;102050.15;;;5.36;16.05
70571;BME280;58135;50.948;-1.458;2022-12-07T00:07:01;102051.54;;;5.43;16.06
70571;BME280;58135;50.948;-1.458;2022-12-07T00:09:27;102052.99;;;4.43;16.12
70571;BME280;58135;50.948;-1.458;2022-12-07T00:11:52;102054.17;;;6.11;16.09
70571;BME280;58135;50.948;-1.458;2022-12-07T00:14:19;102049.23;;;3.38;16.07
70571;BME280;58135;50.948;-1.458;2022-12-07T00:16:44;102044.16;;;5.86;16.00
70571;BME280;58135;50.948;-1.458;2022-12-07T00:19:10;102037.56;;;4.72;16.05
70571;BME280;58135;50.948;-1.458;2022-12-07T00:21:35;102033.03;;;7.29;16.02
70571;BME280;58135;50.948;-1.458;2022-12-07T00:24:01;102031.12;;;5.44;15.99
70571;BME280;58135;50.948;-1.458;2022-12-07T00:26:26;102028.12;;;5.27;16.02
70571;BME280;58135;50.948;-1.458;2022-12-07T00:28:52;102026.08;;;5.12;16.04
70571;BME280;58135;50.948;-1.458;2022-12-07T00:31:17;102026.23;;;5.16;16.01
70571;BME280;58135;50.948;-1.458;2022-12-07T00:33:41;102025.71;;;5.92;16.02
70571;BME280;58135;50.948;-1.458;2022-12-07T00:36:09;102024.68;;;4.05;16.06
70571;BME280;58135;50.948;-1.458;2022-12-07T00:38:34;102025.76;;;6.50;16.05
70571;BME280;58135;50.948;-1.458;2022-12-07T00:40:59;102025.35;;;6.53;16.29
70571;BME280;58135;50.948;-1.458;2022-12-07T00:43:23;102025.76;;;4.65;16.47
70571;BME280;58135;50.948;-1.458;2022-12-07T00:45:48;102024.95;;;6.46;16.75
70571;BME280;58135;50.948;-1.458;2022-12-07T00:48:14;102021.55;;;3.79;16.88
70571;BME280;58135;50.948;-1.458;2022-12-07T00:50:39;102023.19;;;5.67;17.04
70571;BME280;58135;50.948;-1.458;2022-12-07T00:53:05;102020.39;;;5.75;17.00
70571;BME280;58135;50.948;-1.458;2022-12-07T00:55:32;102020.13;;;4.72;17.30
70571;BME280;58135;50.948;-1.458;2022-12-07T00:57:57;102023.18;;;6.30;17.70
70571;BME280;58135;50.948;-1.458;2022-12-07T01:00:22;102024.27;;;6.00;17.57
70571;BME280;58135;50.948;-1.458;2022-12-07T01:02:47;102026.14;;;4.19;17.94
70571;BME280;58135;50.948;-1.458;2022-12-07T01:05:13;102022.12;;;3.87;17.75
70571;BME280;58135;50.948;-1.458;2022-12-07T01:07:39;102021.84;;;5.27;17.68
70571;BME280;58135;50.948;-1.458;2022-12-07T01:10:06;102024.34;;;6.63;17.53
70571;BME280;58135;50.948;-1.458;2022-12-07T01:12:30;102022.70;;;6.04;17.43
70571;BME280;58135;50.948;-1.458;2022-12-07T01:14:55;102019.42;;;4.47;17.39
70571;BME280;58135;50.948;-1.458;2022-12-07T01:17:21;102019.17;;;4.57;17.35
70571;BME280;58135;50.948;-1.458;2022-12-07T01:19:46;102020.07;;;5.68;17.30
70571;BME280;58135;50.948;-1.458;2022-12-07T01:22:11;102018.31;;;7.15;17.35
70571;BME280;58135;50.948;-1.458;2022-12-07T01:24:36;102016.07;;;6.02;17.52
70571;BME280;58135;50.948;-1.458;2022-12-07T01:27:02;102015.58;;;6.06;17.55
70571;BME280;58135;50.948;-1.458;2022-12-07T01:29:27;102014.36;;;3.18;17.65
70571;BME280;58135;50.948;-1.458;2022-12-07T01:31:53;102012.45;;;6.75;17.78
70571;BME280;58135;50.948;-1.458;2022-12-07T01:34:18;102013.87;;;4.41;18.01
70571;BME280;58135;50.948;-1.458;2022-12-07T01:36:44;102012.66;;;4.97;18.00
70571;BME280;58135;50.948;-1.458;2022-12-07T01:39:09;102009.19;;;3.25;18.06
70571;BME280;58135;50.948;-1.458;2022-12-07T01:41:38;102010.02;;;4.88;17.83
70571;BME280;58135;50.948;-1.458;2022-12-07T01:44:12;102008.90;;;4.88;17.81
70571;BME280;58135;50.948;-1.458;2022-12-07T01:46:26;102006.31;;;3.94;17.71
70571;BME280;58135;50.948;-1.458;2022-12-07T01:48:51;102004.29;;;4.01;17.81
70571;BME280;58135;50.948;-1.458;2022-12-07T01:51:17;102004.89;;;6.13;17.69
70571;BME280;58135;50.948;-1.458;2022-12-07T01:53:45;102007.55;;;4.51;17.65
70571;BME280;58135;50.948;-1.458;2022-12-07T01:56:08;102004.70;;;6.57;17.55
70571;BME280;58135;50.948;-1.458;2022-12-07T01:58:33;102006.85;;;3.85;17.54
70571;BME280;58135;50.948;-1.458;2022-12-07T02:00:59;102009.19;;;4.84;17.59
70571;BME280;58135;50.948;-1.458;2022-12-07T02:03:29;102009.48;;;6.83;17.45
70571;BME280;58135;50.948;-1.458;2022-12-07T02:05:51;102010.92;;;6.79;17.51
70571;BME280;58135;50.948;-1.458;2022-12-07T02:08:16;102012.91;;;7.10;17.42
70571;BME280;58135;50.948;-1.458;2022-12-07T02:10:41;102010.97;;;7.33;17.34
70571;BME280;58135;50.948;-1.458;2022-12-07T02:13:11;102013.28;;;6.32;17.36
70571;BME280;58135;50.948;-1.458;2022-12-07T02:15:40;102013.71;;;5.70;17.55
70571;BME280;58135;50.948;-1.458;2022-12-07T02:18:03;102018.95;;;6.29;17.67
70571;BME280;58135;50.948;-1.458;2022-12-07T02:20:28;102020.90;;;5.34;17.71
70571;BME280;58135;50.948;-1.458;2022-12-07T02:25:21;102017.92;;;7.37;17.50
70571;BME280;58135;50.948;-1.458;2022-12-07T02:27:45;102015.60;;;5.89;17.44
70571;BME280;58135;50.948;-1.458;2022-12-07T02:30:07;102016.74;;;6.31;17.21
70571;BME280;58135;50.948;-1.458;2022-12-07T02:32:40;102018.24;;;6.34;17.23
70571;BME280;58135;50.948;-1.458;2022-12-07T02:35:02;102020.02;;;4.63;17.20
70571;BME280;58135;50.948;-1.458;2022-12-07T02:37:33;102017.12;;;7.17;17.11
70571;BME280;58135;50.948;-1.458;2022-12-07T02:39:51;102020.89;;;5.24;17.13
70571;BME280;58135;50.948;-1.458;2022-12-07T02:42:15;102020.64;;;5.20;17.06
70571;BME280;58135;50.948;-1.458;2022-12-07T02:44:38;102018.84;;;7.47;17.27
70571;BME280;58135;50.948;-1.458;2022-12-07T02:47:06;102018.48;;;6.93;17.26
70571;BME280;58135;50.948;-1.458;2022-12-07T02:49:29;102015.40;;;6.95;17.11
70571;BME280;58135;50.948;-1.458;2022-12-07T02:51:53;102012.68;;;5.23;17.14
70571;BME280;58135;50.948;-1.458;2022-12-07T02:54:20;102009.82;;;7.08;17.09
70571;BME280;58135;50.948;-1.458;2022-12-07T02:56:48;102004.17;;;5.97;17.19
70571;BME280;58135;50.948;-1.458;2022-12-07T02:59:16;102000.75;;;6.70;17.16
70571;BME280;58135;50.948;-1.458;2022-12-07T03:01:41;102000.60;;;5.61;17.09
70571;BME280;58135;50.948;-1.458;2022-12-07T03:04:08;101998.62;;;5.56;17.45
70571;BME280;58135;50.948;-1.458;2022-12-07T03:06:30;102000.69;;;5.40;17.56
70571;BME280;58135;50.948;-1.458;2022-12-07T03:08:56;101997.18;;;5.77;17.54
70571;BME280;58135;50.948;-1.458;2022-12-07T03:11:22;101996.37;;;5.44;17.44
70571;BME280;58135;50.948;-1.458;2022-12-07T03:13:48;101996.43;;;6.19;17.25
70571;BME280;58135;50.948;-1.458;2022-12-07T03:16:12;101999.72;;;5.87;17.02
70571;BME280;58135;50.948;-1.458;2022-12-07T03:18:38;101999.24;;;5.03;17.20
70571;BME280;58135;50.948;-1.458;2022-12-07T03:21:03;102002.92;;;5.94;17.18
70571;BME280;58135;50.948;-1.458;2022-12-07T03:23:26;102002.60;;;5.29;17.16
70571;BME280;58135;50.948;-1.458;2022-12-07T03:25:55;101998.91;;;6.60;17.11
70571;BME280;58135;50.948;-1.458;2022-12-07T03:28:18;102000.97;;;6.98;16.99
70571;BME280;58135;50.948;-1.458;2022-12-07T03:30:46;102004.25;;;5.35;16.69
70571;BME280;58135;50.948;-1.458;2022-12-07T03:33:09;102001.80;;;7.62;16.81
70571;BME280;58135;50.948;-1.458;2022-12-07T03:35:34;102005.04;;;4.91;16.95
70571;BME280;58135;50.948;-1.458;2022-12-07T03:37:59;102007.28;;;5.42;16.87
70571;BME280;58135;50.948;-1.458;2022-12-07T03:40:26;102010.12;;;6.60;16.83
70571;BME280;58135;50.948;-1.458;2022-12-07T03:42:48;102007.19;;;6.10;16.76
70571;BME280;58135;50.948;-1.458;2022-12-07T03:45:14;102006.21;;;7.04;16.57
70571;BME280;58135;50.948;-1.458;2022-12-07T03:47:44;102006.86;;;8.11;16.63
70571;BME280;58135;50.948;-1.458;2022-12-07T03:50:09;102002.48;;;7.41;16.42
70571;BME280;58135;50.948;-1.458;2022-12-07T03:52:33;102002.76;;;5.87;16.53
70571;BME280;58135;50.948;-1.458;2022-12-07T03:54:58;102000.74;;;5.88;16.74
70571;BME280;58135;50.948;-1.458;2022-12-07T03:57:21;102000.31;;;5.57;16.79
70571;BME280;58135;50.948;-1.458;2022-12-07T03:59:46;102002.32;;;5.62;17.01
70571;BME280;58135;50.948;-1.458;2022-12-07T04:02:12;102002.07;;;5.08;17.05
70571;BME280;58135;50.948;-1.458;2022-12-07T04:04:36;102002.53;;;6.20;17.01
70571;BME280;58135;50.948;-1.458;2022-12-07T04:07:02;102001.26;;;5.74;16.96
70571;BME280;58135;50.948;-1.458;2022-12-07T04:09:27;102000.00;;;6.17;17.19
70571;BME280;58135;50.948;-1.458;2022-12-07T04:11:52;101999.26;;;5.41;17.24
70571;BME280;58135;50.948;-1.458;2022-12-07T04:14:17;101996.08;;;6.34;17.14
70571;BME280;58135;50.948;-1.458;2022-12-07T04:16:43;101996.73;;;6.52;17.14
70571;BME280;58135;50.948;-1.458;2022-12-07T04:19:08;101994.70;;;4.17;17.21
70571;BME280;58135;50.948;-1.458;2022-12-07T04:21:34;101993.84;;;6.04;17.24
70571;BME280;58135;50.948;-1.458;2022-12-07T04:23:59;101995.02;;;5.72;17.28
70571;BME280;58135;50.948;-1.458;2022-12-07T04:26:24;101995.15;;;4.93;17.34
70571;BME280;58135;50.948;-1.458;2022-12-07T04:28:49;101998.88;;;3.64;17.32
70571;BME280;58135;50.948;-1.458;2022-12-07T04:31:15;102000.84;;;5.60;17.51
70571;BME280;58135;50.948;-1.458;2022-12-07T04:33:41;101993.92;;;4.84;17.59
70571;BME280;58135;50.948;-1.458;2022-12-07T04:36:07;101992.30;;;5.25;17.52
70571;BME280;58135;50.948;-1.458;2022-12-07T04:38:31;101986.73;;;7.07;17.40
70571;BME280;58135;50.948;-1.458;2022-12-07T04:40:56;101985.94;;;2.66;17.33
70571;BME280;58135;50.948;-1.458;2022-12-07T04:43:22;101986.13;;;3.13;17.51
70571;BME280;58135;50.948;-1.458;2022-12-07T04:45:47;101984.02;;;5.03;17.45
70571;BME280;58135;50.948;-1.458;2022-12-07T04:48:12;101982.69;;;5.70;17.50
70571;BME280;58135;50.948;-1.458;2022-12-07T04:50:38;101980.21;;;3.03;17.63
70571;BME280;58135;50.948;-1.458;2022-12-07T04:53:03;101976.87;;;4.34;17.41
70571;BME280;58135;50.948;-1.458;2022-12-07T04:55:29;101976.96;;;4.30;17.41
70571;BME280;58135;50.948;-1.458;2022-12-07T04:57:54;101975.81;;;5.50;17.40
70571;BME280;58135;50.948;-1.458;2022-12-07T05:00:21;101978.63;;;4.70;17.20
70571;BME280;58135;50.948;-1.458;2022-12-07T05:02:45;101980.46;;;3.39;17.42
70571;BME280;58135;50.948;-1.458;2022-12-07T05:05:10;101979.42;;;5.28;17.46
70571;BME280;58135;50.948;-1.458;2022-12-07T05:07:35;101980.78;;;3.27;17.40
70571;BME280;58135;50.948;-1.458;2022-12-07T05:10:01;101985.63;;;4.12;17.48
70571;BME280;58135;50.948;-1.458;2022-12-07T05:12:27;101986.85;;;5.42;17.58
70571;BME280;58135;50.948;-1.458;2022-12-07T05:14:52;101983.37;;;5.33;17.59
70571;BME280;58135;50.948;-1.458;2022-12-07T05:17:18;101984.07;;;3.82;17.70
70571;BME280;58135;50.948;-1.458;2022-12-07T05:19:44;101981.83;;;4.51;17.42
70571;BME280;58135;50.948;-1.458;2022-12-07T05:22:09;101983.29;;;4.78;17.33
70571;BME280;58135;50.948;-1.458;2022-12-07T05:24:34;101986.09;;;7.34;17.32
70571;BME280;58135;50.948;-1.458;2022-12-07T05:27:00;101979.60;;;4.67;17.35
70571;BME280;58135;50.948;-1.458;2022-12-07T05:29:25;101980.58;;;6.13;17.31
70571;BME280;58135;50.948;-1.458;2022-12-07T05:31:50;101981.97;;;5.34;17.11
70571;BME280;58135;50.948;-1.458;2022-12-07T05:34:16;101985.18;;;5.88;17.13
70571;BME280;58135;50.948;-1.458;2022-12-07T05:36:41;101988.26;;;4.21;17.24
70571;BME280;58135;50.948;-1.458;2022-12-07T05:39:07;101985.99;;;6.03;17.59
70571;BME280;58135;50.948;-1.458;2022-12-07T05:41:31;101986.20;;;3.09;17.70
70571;BME280;58135;50.948;-1.458;2022-12-07T05:43:57;101991.59;;;2.95;17.73
70571;BME280;58135;50.948;-1.458;2022-12-07T05:46:22;101985.32;;;3.49;17.84
70571;BME280;58135;50.948;-1.458;2022-12-07T05:48:48;101982.76;;;2.52;17.88
70571;BME280;58135;50.948;-1.458;2022-12-07T05:51:13;101978.50;;;4.23;17.97
70571;BME280;58135;50.948;-1.458;2022-12-07T05:53:38;101976.16;;;1.56;18.03
70571;BME280;58135;50.948;-1.458;2022-12-07T05:56:05;101975.66;;;3.70;17.93
70571;BME280;58135;50.948;-1.458;2022-12-07T05:58:29;101968.89;;;4.80;17.86
70571;BME280;58135;50.948;-1.458;2022-12-07T06:00:55;101969.97;;;4.52;17.74
70571;BME280;58135;50.948;-1.458;2022-12-07T06:03:20;101969.80;;;4.92;17.59
70571;BME280;58135;50.948;-1.458;2022-12-07T06:05:46;101968.79;;;5.06;17.49
70571;BME280;58135;50.948;-1.458;2022-12-07T06:08:11;101967.99;;;5.41;17.49
70571;BME280;58135;50.948;-1.458;2022-12-07T06:10:37;101969.85;;;5.19;17.30
70571;BME280;58135;50.948;-1.458;2022-12-07T06:13:02;101966.67;;;4.65;17.20
70571;BME280;58135;50.948;-1.458;2022-12-07T06:15:28;101958.40;;;5.69;17.10
70571;BME280;58135;50.948;-1.458;2022-12-07T06:17:54;101962.91;;;4.54;16.92
70571;BME280;58135;50.948;-1.458;2022-12-07T06:20:20;101962.29;;;4.90;17.15
70571;BME280;58135;50.948;-1.458;2022-12-07T06:22:45;101964.75;;;4.84;17.14
70571;BME280;58135;50.948;-1.458;2022-12-07T06:25:10;101966.92;;;6.13;17.31
70571;BME280;58135;50.948;-1.458;2022-12-07T06:27:36;101963.76;;;3.64;17.24
70571;BME280;58135;50.948;-1.458;2022-12-07T06:30:02;101967.58;;;5.60;17.10
70571;BME280;58135;50.948;-1.458;2022-12-07T06:32:27;101967.16;;;6.07;17.21
70571;BME280;58135;50.948;-1.458;2022-12-07T06:34:52;101967.85;;;2.77;17.38
70571;BME280;58135;50.948;-1.458;2022-12-07T06:37:18;101967.17;;;4.55;17.42
70571;BME280;58135;50.948;-1.458;2022-12-07T06:39:43;101967.42;;;4.57;17.39
70571;BME280;58135;50.948;-1.458;2022-12-07T06:42:08;101966.72;;;3.74;17.35
70571;BME280;58135;50.948;-1.458;2022-12-07T06:44:34;101970.76;;;4.24;17.53
70571;BME280;58135;50.948;-1.458;2022-12-07T06:46:59;101976.70;;;5.37;17.52
70571;BME280;58135;50.948;-1.458;2022-12-07T06:49:25;101979.57;;;3.71;17.39
70571;BME280;58135;50.948;-1.458;2022-12-07T06:51:50;101978.14;;;3.40;17.40
70571;BME280;58135;50.948;-1.458;2022-12-07T06:54:16;101974.67;;;5.09;17.43
70571;BME280;58135;50.948;-1.458;2022-12-07T06:56:41;101976.31;;;4.73;17.68
70571;BME280;58135;50.948;-1.458;2022-12-07T06:59:07;101979.52;;;2.88;17.68
70571;BME280;58135;50.948;-1.458;2022-12-07T07:01:33;101976.25;;;4.04;17.68
70571;BME280;58135;50.948;-1.458;2022-12-07T07:03:57;101979.92;;;4.84;17.41
70571;BME280;58135;50.948;-1.458;2022-12-07T07:06:22;101975.99;;;4.57;17.35
70571;BME280;58135;50.948;-1.458;2022-12-07T07:08:48;101973.53;;;5.94;17.16
70571;BME280;58135;50.948;-1.458;2022-12-07T07:11:13;101976.19;;;4.22;17.00
70571;BME280;58135;50.948;-1.458;2022-12-07T07:13:39;101973.45;;;4.93;17.03
70571;BME280;58135;50.948;-1.458;2022-12-07T07:16:06;101978.92;;;6.21;17.01
70571;BME280;58135;50.948;-1.458;2022-12-07T07:18:30;101982.44;;;2.18;17.24
70571;BME280;58135;50.948;-1.458;2022-12-07T07:20:56;101980.86;;;4.55;17.31
70571;BME280;58135;50.948;-1.458;2022-12-07T07:23:22;101978.30;;;5.97;16.92
70571;BME280;58135;50.948;-1.458;2022-12-07T07:25:47;101982.88;;;4.84;17.11
70571;BME280;58135;50.948;-1.458;2022-12-07T07:28:12;101980.23;;;5.04;17.07
70571;BME280;58135;50.948;-1.458;2022-12-07T07:30:38;101983.94;;;4.51;16.74
70571;BME280;58135;50.948;-1.458;2022-12-07T07:33:04;101982.80;;;6.54;16.94
70571;BME280;58135;50.948;-1.458;2022-12-07T07:35:31;101984.14;;;6.40;17.03
70571;BME280;58135;50.948;-1.458;2022-12-07T07:37:54;101981.74;;;4.40;17.06
70571;BME280;58135;50.948;-1.458;2022-12-07T07:40:21;101982.04;;;5.94;17.15
70571;BME280;58135;50.948;-1.458;2022-12-07T07:42:47;101982.96;;;2.97;17.30
70571;BME280;58135;50.948;-1.458;2022-12-07T07:45:11;101974.56;;;4.23;17.33
70571;BME280;58135;50.948;-1.458;2022-12-07T07:47:36;101971.24;;;4.95;17.08
70571;BME280;58135;50.948;-1.458;2022-12-07T07:50:02;101972.25;;;6.41;17.31
70571;BME280;58135;50.948;-1.458;2022-12-07T07:52:27;101972.13;;;3.82;17.45
70571;BME280;58135;50.948;-1.458;2022-12-07T07:54:53;101976.54;;;3.54;17.50
70571;BME280;58135;50.948;-1.458;2022-12-07T07:57:18;101976.28;;;4.78;17.65
70571;BME280;58135;50.948;-1.458;2022-12-07T07:59:43;101977.28;;;4.44;17.62
70571;BME280;58135;50.948;-1.458;2022-12-07T08:02:14;101978.72;;;3.65;17.52
70571;BME280;58135;50.948;-1.458;2022-12-07T08:04:35;101977.59;;;3.85;17.73
70571;BME280;58135;50.948;-1.458;2022-12-07T08:06:59;101980.28;;;3.29;17.75
70571;BME280;58135;50.948;-1.458;2022-12-07T08:09:25;101984.43;;;3.57;17.50
70571;BME280;58135;50.948;-1.458;2022-12-07T08:11:51;101983.32;;;3.00;17.73
70571;BME280;58135;50.948;-1.458;2022-12-07T08:14:16;101985.32;;;4.28;17.73
70571;BME280;58135;50.948;-1.458;2022-12-07T08:16:41;101987.50;;;3.47;17.48
70571;BME280;58135;50.948;-1.458;2022-12-07T08:19:07;101990.96;;;7.24;17.18
70571;BME280;58135;50.948;-1.458;2022-12-07T08:21:32;101990.60;;;4.86;17.21
70571;BME280;58135;50.948;-1.458;2022-12-07T08:23:57;101990.71;;;4.42;17.10
70571;BME280;58135;50.948;-1.458;2022-12-07T08:26:23;101991.73;;;3.97;17.29
70571;BME280;58135;50.948;-1.458;2022-12-07T08:28:48;101994.76;;;3.40;17.29
70571;BME280;58135;50.948;-1.458;2022-12-07T08:31:15;101998.83;;;4.51;17.21
70571;BME280;58135;50.948;-1.458;2022-12-07T08:33:39;101999.89;;;4.91;17.15
70571;BME280;58135;50.948;-1.458;2022-12-07T08:36:07;102002.21;;;5.13;17.07
70571;BME280;58135;50.948;-1.458;2022-12-07T08:38:29;101997.84;;;6.78;17.11
70571;BME280;58135;50.948;-1.458;2022-12-07T08:40:55;101996.41;;;4.99;17.02
70571;BME280;58135;50.948;-1.458;2022-12-07T08:43:20;101995.38;;;3.68;16.95
70571;BME280;58135;50.948;-1.458;2022-12-07T08:45:47;101996.98;;;4.12;16.91
70571;BME280;58135;50.948;-1.458;2022-12-07T08:48:12;101994.77;;;3.70;17.16
70571;BME280;58135;50.948;-1.458;2022-12-07T08:50:37;101993.87;;;5.65;17.00
70571;BME280;58135;50.948;-1.458;2022-12-07T08:53:03;101994.45;;;4.42;17.29
70571;BME280;58135;50.948;-1.458;2022-12-07T08:55:28;101997.53;;;5.12;17.19
70571;BME280;58135;50.948;-1.458;2022-12-07T08:57:54;102001.92;;;4.71;17.43
70571;BME280;58135;50.948;-1.458;2022-12-07T09:00:19;102004.22;;;5.78;17.48
70571;BME280;58135;50.948;-1.458;2022-12-07T09:02:44;102006.95;;;3.68;17.40
70571;BME280;58135;50.948;-1.458;2022-12-07T09:05:09;102003.03;;;3.54;17.16
70571;BME280;58135;50.948;-1.458;2022-12-07T09:07:35;102001.30;;;4.40;17.28
70571;BME280;58135;50.948;-1.458;2022-12-07T09:10:02;101999.73;;;4.84;17.17
70571;BME280;58135;50.948;-1.458;2022-12-07T09:12:26;101996.21;;;5.68;16.99
70571;BME280;58135;50.948;-1.458;2022-12-07T09:14:51;102000.72;;;3.79;17.07
70571;BME280;58135;50.948;-1.458;2022-12-07T09:17:17;101999.33;;;6.82;17.07
70571;BME280;58135;50.948;-1.458;2022-12-07T09:19:43;101998.14;;;5.32;16.94
70571;BME280;58135;50.948;-1.458;2022-12-07T09:22:09;101994.70;;;4.46;17.16
70571;BME280;58135;50.948;-1.458;2022-12-07T09:24:34;101992.67;;;3.40;17.30
70571;BME280;58135;50.948;-1.458;2022-12-07T09:26:59;101989.66;;;4.35;17.32
70571;BME280;58135;50.948;-1.458;2022-12-07T09:29:24;101994.14;;;4.79;17.30
70571;BME280;58135;50.948;-1.458;2022-12-07T09:31:52;101992.07;;;6.14;17.10
70571;BME280;58135;50.948;-1.458;2022-12-07T09:34:16;101989.27;;;3.69;17.01
70571;BME280;58135;50.948;-1.458;2022-12-07T09:36:41;101989.21;;;4.15;17.07
70571;BME280;58135;50.948;-1.458;2022-12-07T09:39:06;101992.36;;;4.69;17.32
70571;BME280;58135;50.948;-1.458;2022-12-07T09:41:32;101990.66;;;5.05;17.37
70571;BME280;58135;50.948;-1.458;2022-12-07T09:44:03;101990.44;;;3.66;17.21
70571;BME280;58135;50.948;-1.458;2022-12-07T09:46:23;101989.71;;;4.91;17.00
70571;BME280;58135;50.948;-1.458;2022-12-07T09:48:49;101988.09;;;7.20;16.82
70571;BME280;58135;50.948;-1.458;2022-12-07T09:51:16;101991.30;;;5.01;16.92
70571;BME280;58135;50.948;-1.458;2022-12-07T09:53:39;101987.85;;;6.43;17.04
70571;BME280;58135;50.948;-1.458;2022-12-07T09:56:05;101986.22;;;4.95;16.98
70571;BME280;58135;50.948;-1.458;2022-12-07T09:58:32;101979.11;;;5.86;16.95
70571;BME280;58135;50.948;-1.458;2022-12-07T10:00:58;101975.32;;;4.95;16.86
70571;BME280;58135;50.948;-1.458;2022-12-07T10:03:21;101978.14;;;3.90;16.98
70571;BME280;58135;50.948;-1.458;2022-12-07T10:05:49;101972.75;;;4.95;16.84
70571;BME280;58135;50.948;-1.458;2022-12-07T10:08:13;101971.01;;;3.33;16.98
70571;BME280;58135;50.948;-1.458;2022-12-07T10:10:37;101973.73;;;6.02;17.30
70571;BME280;58135;50.948;-1.458;2022-12-07T10:13:05;101971.88;;;6.76;17.33
70571;BME280;58135;50.948;-1.458;2022-12-07T10:15:44;101968.30;;;5.39;17.57
70571;BME280;58135;50.948;-1.458;2022-12-07T10:17:54;101966.83;;;4.92;17.41
70571;BME280;58135;50.948;-1.458;2022-12-07T10:20:22;101966.06;;;3.03;17.43
70571;BME280;58135;50.948;-1.458;2022-12-07T10:22:56;101964.12;;;3.49;17.35
70571;BME280;58135;50.948;-1.458;2022-12-07T10:25:17;101964.26;;;5.54;17.28
70571;BME280;58135;50.948;-1.458;2022-12-07T10:27:35;101962.44;;;4.16;17.23
70571;BME280;58135;50.948;-1.458;2022-12-07T10:30:07;101960.11;;;4.69;17.03
70571;BME280;58135;50.948;-1.458;2022-12-07T10:32:31;101956.40;;;4.46;16.83
70571;BME280;58135;50.948;-1.458;2022-12-07T10:37:19;101949.87;;;2.91;17.30
70571;BME280;58135;50.948;-1.458;2022-12-07T10:39:44;101950.33;;;4.40;17.01
70571;BME280;58135;50.948;-1.458;2022-12-07T10:42:16;101946.85;;;3.19;17.19
70571;BME280;58135;50.948;-1.458;2022-12-07T10:44:33;101942.90;;;4.40;16.98
70571;BME280;58135;50.948;-1.458;2022-12-07T10:47:07;101940.19;;;7.05;16.98
70571;BME280;58135;50.948;-1.458;2022-12-07T10:49:38;101935.18;;;4.96;17.16
70571;BME280;58135;50.948;-1.458;2022-12-07T10:51:52;101934.38;;;5.75;17.15
70571;BME280;58135;50.948;-1.458;2022-12-07T10:54:19;101929.74;;;1.91;17.17
70571;BME280;58135;50.948;-1.458;2022-12-07T10:56:50;101928.61;;;5.67;17.24
70571;BME280;58135;50.948;-1.458;2022-12-07T10:59:19;101922.71;;;5.90;17.29
70571;BME280;58135;50.948;-1.458;2022-12-07T11:01:33;101920.67;;;4.75;16.98
70571;BME280;58135;50.948;-1.458;2022-12-07T11:04:04;101919.52;;;5.56;16.95
70571;BME280;58135;50.948;-1.458;2022-12-07T11:06:30;101917.59;;;7.47;17.09
70571;BME280;58135;50.948;-1.458;2022-12-07T11:08:55;101916.72;;;6.95;16.90
70571;BME280;58135;50.948;-1.458;2022-12-07T11:11:14;101913.78;;;5.62;16.72
70571;BME280;58135;50.948;-1.458;2022-12-07T11:13:41;101909.22;;;3.24;17.10
70571;BME280;58135;50.948;-1.458;2022-12-07T11:16:11;101906.28;;;5.41;17.25
70571;BME280;58135;50.948;-1.458;2022-12-07T11:18:32;101898.78;;;3.84;17.31
70571;BME280;58135;50.948;-1.458;2022-12-07T11:20:56;101895.98;;;6.19;17.17
70571;BME280;58135;50.948;-1.458;2022-12-07T11:23:24;101891.93;;;3.69;17.14
70571;BME280;58135;50.948;-1.458;2022-12-07T11:25:49;101886.06;;;4.78;17.11
70571;BME280;58135;50.948;-1.458;2022-12-07T11:28:18;101882.91;;;3.97;17.10
70571;BME280;58135;50.948;-1.458;2022-12-07T11:30:38;101879.76;;;4.77;17.22
70571;BME280;58135;50.948;-1.458;2022-12-07T11:33:10;101876.90;;;6.65;17.15
70571;BME280;58135;50.948;-1.458;2022-12-07T11:35:36;101877.54;;;6.32;17.04
70571;BME280;58135;50.948;-1.458;2022-12-07T11:37:56;101867.43;;;5.67;16.92
70571;BME280;58135;50.948;-1.458;2022-12-07T11:40:20;101862.36;;;6.55;16.99
70571;BME280;58135;50.948;-1.458;2022-12-07T11:42:45;101857.72;;;6.03;16.89
70571;BME280;58135;50.948;-1.458;2022-12-07T11:45:13;101856.69;;;5.57;16.72
70571;BME280;58135;50.948;-1.458;2022-12-07T11:47:38;101850.20;;;4.92;16.69
70571;BME280;58135;50.948;-1.458;2022-12-07T11:50:05;101848.10;;;4.64;16.85
70571;BME280;58135;50.948;-1.458;2022-12-07T11:52:30;101848.10;;;4.53;16.91
70571;BME280;58135;50.948;-1.458;2022-12-07T11:54:51;101848.52;;;4.16;17.08
70571;BME280;58135;50.948;-1.458;2022-12-07T11:57:19;101848.10;;;3.60;16.79
70571;BME280;58135;50.948;-1.458;2022-12-07T11:59:45;101836.68;;;4.70;16.98
70571;BME280;58135;50.948;-1.458;2022-12-07T12:02:13;101840.98;;;3.64;16.87
70571;BME280;58135;50.948;-1.458;2022-12-07T12:04:39;101839.53;;;6.20;16.65
70571;BME280;58135;50.948;-1.458;2022-12-07T12:06:56;101837.01;;;6.98;16.90
70571;BME280;58135;50.948;-1.458;2022-12-07T12:09:26;101840.06;;;4.75;16.84
70571;BME280;58135;50.948;-1.458;2022-12-07T12:12:05;101833.46;;;4.96;16.74
70571;BME280;58135;50.948;-1.458;2022-12-07T12:14:23;101828.95;;;5.71;16.63
70571;BME280;58135;50.948;-1.458;2022-12-07T12:16:49;101827.70;;;5.76;16.43
70571;BME280;58135;50.948;-1.458;2022-12-07T12:19:13;101825.91;;;5.30;16.65
70571;BME280;58135;50.948;-1.458;2022-12-07T12:21:28;101824.73;;;5.47;16.67
70571;BME280;58135;50.948;-1.458;2022-12-07T12:23:56;101821.92;;;5.20;16.70
70571;BME280;58135;50.948;-1.458;2022-12-07T12:26:20;101821.63;;;6.56;16.43
70571;BME280;58135;50.948;-1.458;2022-12-07T12:28:50;101819.61;;;4.00;16.52
70571;BME280;58135;50.948;-1.458;2022-12-07T12:31:12;101818.21;;;5.80;16.41
70571;BME280;58135;50.948;-1.458;2022-12-07T12:33:35;101816.89;;;7.45;16.61
70571;BME280;58135;50.948;-1.458;2022-12-07T12:38:31;101807.33;;;6.71;16.27
70571;BME280;58135;50.948;-1.458;2022-12-07T12:40:50;101802.44;;;5.97;16.42
70571;BME280;58135;50.948;-1.458;2022-12-07T12:45:41;101795.20;;;4.99;16.49
70571;BME280;58135;50.948;-1.458;2022-12-07T12:50:34;101789.29;;;5.50;16.47
70571;BME280;58135;50.948;-1.458;2022-12-07T12:53:05;101786.93;;;6.32;16.52